Time;durP1;ratioP1;P1;durP2;ratioP2;P2;SDS_P1;SDS_P2;PMS_P1;PMS_P2;Temp;Humidity;BMP_temperature;BMP_pressure;BME280_temperature;BME280_humidity;BME280_pressure;Samples;Min_cycle;Max_cycle;Signal;HPM_P1;HPM_P2
2022/04/16 00:00:13;;;;;;;15.30;10.60;;;;;;;5.20;100.00;102146.09;681080;28;4278;-77
2022/04/16 00:00:34;;;;;;;13.13;10.43;;;;;;;5.18;100.00;102150.31;681902;28;981;-77
2022/04/16 00:00:55;;;;;;;12.70;10.13;;;;;;;5.18;100.00;102147.72;678800;28;1559;-76
2022/04/16 00:01:17;;;;;;;13.20;10.38;;;;;;;5.16;100.00;102146.78;678744;28;1676;-77
2022/04/16 00:01:38;;;;;;;12.90;9.70;;;;;;;5.16;100.00;102146.78;678402;28;1443;-77
2022/04/16 00:02:00;;;;;;;11.95;9.73;;;;;;;5.15;100.00;102150.19;684199;28;1269;-77
2022/04/16 00:02:21;;;;;;;13.23;10.73;;;;;;;5.13;100.00;102139.75;682105;28;1316;-77
2022/04/16 00:02:42;;;;;;;13.17;10.63;;;;;;;5.13;100.00;102149.25;681267;28;1915;-76
2022/04/16 00:03:02;;;;;;;12.90;10.40;;;;;;;5.13;100.00;102144.94;681423;28;4338;-77
2022/04/16 00:03:24;;;;;;;13.17;10.43;;;;;;;5.15;100.00;102145.00;681586;28;1581;-77
2022/04/16 00:03:45;;;;;;;11.77;10.00;;;;;;;5.16;100.00;102149.38;683339;28;1763;-76
2022/04/16 00:04:08;;;;;;;12.93;10.45;;;;;;;5.12;100.00;102145.75;685487;28;1373;-77
2022/04/16 00:04:29;;;;;;;13.30;10.60;;;;;;;5.13;100.00;102146.66;685084;28;970;-77
2022/04/16 00:04:49;;;;;;;12.65;10.07;;;;;;;5.14;100.00;102143.22;686366;28;951;-77
2022/04/16 00:05:11;;;;;;;12.48;10.05;;;;;;;5.19;100.00;102152.09;683555;28;1378;-77
2022/04/16 00:05:31;;;;;;;13.25;10.50;;;;;;;5.17;100.00;102144.25;682496;28;1208;-77
2022/04/16 00:05:54;;;;;;;12.88;10.77;;;;;;;5.18;100.00;102140.84;679512;28;1463;-77
2022/04/16 00:06:15;;;;;;;13.27;10.55;;;;;;;5.19;100.00;102147.81;679223;28;4349;-77
2022/04/16 00:06:36;;;;;;;13.00;10.80;;;;;;;5.16;100.00;102150.25;680037;28;1306;-76
2022/04/16 00:06:57;;;;;;;14.25;10.95;;;;;;;5.16;100.00;102146.78;678585;28;1676;-77
2022/04/16 00:07:17;;;;;;;14.80;11.53;;;;;;;5.14;100.00;102145.81;681781;28;1239;-77
2022/04/16 00:07:38;;;;;;;13.80;10.95;;;;;;;5.18;100.00;102147.72;678733;28;1403;-76
2022/04/16 00:08:08;;;;;;;13.65;10.68;;;;;;;5.20;100.00;102146.97;679570;28;1129;-77
2022/04/16 00:08:30;;;;;;;13.50;10.60;;;;;;;5.20;100.00;102144.38;678417;28;1734;-77
2022/04/16 00:08:50;;;;;;;14.02;10.90;;;;;;;5.21;100.00;102146.13;679582;28;1069;-77
2022/04/16 00:09:11;;;;;;;14.13;11.00;;;;;;;5.20;100.00;102144.38;676708;28;5322;-77
2022/04/16 00:09:32;;;;;;;14.00;10.80;;;;;;;5.23;100.00;102143.59;677828;28;1378;-77
2022/04/16 00:09:52;;;;;;;14.23;11.00;;;;;;;5.22;100.00;102149.59;679509;28;1387;-77
2022/04/16 00:10:12;;;;;;;14.00;11.23;;;;;;;5.22;100.00;102147.91;680822;28;1265;-76
2022/04/16 00:10:37;;;;;;;13.35;10.80;;;;;;;5.25;100.00;102147.16;682346;28;1687;-77
2022/04/16 00:10:58;;;;;;;13.30;10.93;;;;;;;5.25;100.00;102145.44;683633;28;1412;-76
2022/04/16 00:11:18;;;;;;;13.63;11.23;;;;;;;5.30;100.00;102135.25;684038;28;1181;-77
2022/04/16 00:11:39;;;;;;;13.68;10.98;;;;;;;5.29;100.00;102139.56;684157;28;1831;-77
2022/04/16 00:12:00;;;;;;;14.65;11.05;;;;;;;5.29;100.00;102149.06;687404;28;4340;-76
2022/04/16 00:12:20;;;;;;;13.90;11.03;;;;;;;5.28;100.00;102142.09;683628;28;1298;-76
2022/04/16 00:12:40;;;;;;;14.07;11.35;;;;;;;5.31;100.00;102137.03;681821;28;1725;-77
2022/04/16 00:13:02;;;;;;;14.27;11.37;;;;;;;5.31;100.00;102142.22;681199;28;1363;-76
2022/04/16 00:13:22;;;;;;;14.45;11.38;;;;;;;5.30;100.00;102140.44;681871;28;1669;-76
2022/04/16 00:13:43;;;;;;;13.87;11.33;;;;;;;5.29;100.00;102146.47;681021;28;1371;-77
2022/04/16 00:14:03;;;;;;;13.77;10.80;;;;;;;5.29;100.00;102136.09;681350;28;1217;-77
2022/04/16 00:14:24;;;;;;;13.33;11.57;;;;;;;5.32;100.00;102143.09;683212;28;1628;-77
2022/04/16 00:14:44;;;;;;;14.33;11.77;;;;;;;5.31;100.00;102147.41;681415;28;1373;-77
2022/04/16 00:15:06;;;;;;;14.23;10.98;;;;;;;5.31;100.00;102141.34;677847;28;4290;-77
2022/04/16 00:15:27;;;;;;;14.07;11.00;;;;;;;5.29;100.00;102136.09;681355;28;1395;-77
2022/04/16 00:15:49;;;;;;;14.88;11.50;;;;;;;5.27;100.00;102141.22;686426;28;1826;-77
2022/04/16 00:16:09;;;;;;;14.50;11.77;;;;;;;5.26;100.00;102143.72;686725;28;1752;-77
2022/04/16 00:16:30;;;;;;;13.93;11.57;;;;;;;5.25;100.00;102139.38;683917;28;1414;-76
2022/04/16 00:16:50;;;;;;;14.77;11.80;;;;;;;5.26;100.00;102139.44;684212;28;1313;-77
2022/04/16 00:17:10;;;;;;;14.32;11.35;;;;;;;5.27;100.00;102136.03;682157;28;1224;-77
2022/04/16 00:17:31;;;;;;;15.30;11.47;;;;;;;5.30;100.00;102135.25;678665;29;1416;-76
2022/04/16 00:17:51;;;;;;;14.67;11.13;;;;;;;5.32;100.00;102135.31;676321;29;1126;-76
2022/04/16 00:18:12;;;;;;;14.50;11.80;;;;;;;5.31;100.00;102134.44;674802;29;4323;-77
2022/04/16 00:18:32;;;;;;;14.25;11.55;;;;;;;5.36;100.00;102140.69;678523;29;1669;-77
2022/04/16 00:18:56;;;;;;;14.93;11.77;;;;;;;5.34;100.00;102133.69;679538;28;1415;-76
2022/04/16 00:19:16;;;;;;;13.70;11.35;;;;;;;5.36;100.00;102132.91;685016;28;1308;-77
2022/04/16 00:19:36;;;;;;;14.07;11.67;;;;;;;5.35;100.00;102130.28;685610;28;1624;-77
2022/04/16 00:19:57;;;;;;;14.68;11.38;;;;;;;5.35;100.00;102132.88;686416;28;1520;-76
2022/04/16 00:20:17;;;;;;;14.70;11.20;;;;;;;5.34;100.00;102137.16;684893;28;1430;-77
2022/04/16 00:20:39;;;;;;;14.38;11.38;;;;;;;5.34;100.00;102138.88;684859;28;1653;-77
2022/04/16 00:21:04;;;;;;;15.00;11.82;;;;;;;5.32;100.00;102128.44;685899;28;4494;-77
2022/04/16 00:21:24;;;;;;;14.45;11.38;;;;;;;5.34;100.00;102141.47;686766;28;1720;-77
2022/04/16 00:21:45;;;;;;;14.63;11.80;;;;;;;5.33;100.00;102135.41;683396;28;1395;-77
2022/04/16 00:22:09;;;;;;;14.63;12.23;;;;;;;5.33;100.00;102140.59;685044;28;1462;-76
2022/04/16 00:22:30;;;;;;;15.10;11.80;;;;;;;5.36;100.00;102134.59;682857;28;1963;-76
2022/04/16 00:22:54;;;;;;;15.20;11.80;;;;;;;5.35;100.00;102136.31;680507;28;1204;-77
2022/04/16 00:23:14;;;;;;;14.65;11.63;;;;;;;5.35;100.00;102138.06;675204;29;1242;-77
2022/04/16 00:23:34;;;;;;;14.87;11.67;;;;;;;5.36;100.00;102137.19;676254;29;1439;-77
2022/04/16 00:23:55;;;;;;;13.93;11.25;;;;;;;5.37;100.00;102131.19;678664;29;1593;-77
2022/04/16 00:24:15;;;;;;;14.83;11.50;;;;;;;5.35;100.00;102125.97;677362;29;4625;-76
2022/04/16 00:24:36;;;;;;;14.50;11.40;;;;;;;5.35;100.00;102138.91;679832;28;1665;-77
2022/04/16 00:24:56;;;;;;;13.98;11.40;;;;;;;5.34;100.00;102137.16;682126;28;1323;-77
2022/04/16 00:25:16;;;;;;;15.55;11.43;;;;;;;5.36;100.00;102135.50;684508;28;1527;-78
2022/04/16 00:25:37;;;;;;;15.20;11.50;;;;;;;5.34;100.00;102125.91;683386;28;1451;-76
2022/04/16 00:25:58;;;;;;;14.95;11.65;;;;;;;5.35;100.00;102127.69;683074;28;1247;-76
2022/04/16 00:26:20;;;;;;;15.45;11.70;;;;;;;5.36;100.00;102125.13;683837;28;1389;-77
2022/04/16 00:26:41;;;;;;;15.73;11.35;;;;;;;5.39;100.00;102129.56;680447;28;1788;-77
2022/04/16 00:27:02;;;;;;;15.32;11.50;;;;;;;5.39;100.00;102132.16;680105;28;4551;-77
2022/04/16 00:27:24;;;;;;;14.50;11.70;;;;;;;5.38;100.00;102130.38;680918;28;1669;-76
2022/04/16 00:27:46;;;;;;;15.73;12.05;;;;;;;5.36;100.00;102127.72;680414;28;1571;-77
2022/04/16 00:28:08;;;;;;;15.15;11.73;;;;;;;5.39;100.00;102121.78;675955;29;1345;-76
2022/04/16 00:28:29;;;;;;;15.82;11.90;;;;;;;5.39;100.00;102121.78;679509;28;1580;-77
2022/04/16 00:28:50;;;;;;;15.90;11.85;;;;;;;5.39;100.00;102121.78;678376;28;1141;-77
2022/04/16 00:29:12;;;;;;;16.77;12.37;;;;;;;5.37;100.00;102128.59;678742;29;1231;-76
2022/04/16 00:29:34;;;;;;;17.00;12.40;;;;;;;5.40;100.00;102127.03;679043;29;1403;-76
2022/04/16 00:29:55;;;;;;;14.93;11.95;;;;;;;5.41;100.00;102128.81;679217;28;1322;-77
2022/04/16 00:30:17;;;;;;;14.60;11.48;;;;;;;5.41;100.00;102123.63;682250;28;4464;-77
2022/04/16 00:30:38;;;;;;;14.85;11.52;;;;;;;5.41;100.00;102131.41;684441;28;1148;-77
2022/04/16 00:30:58;;;;;;;14.90;11.68;;;;;;;5.42;100.00;102130.56;684127;28;1461;-77
2022/04/16 00:31:19;;;;;;;16.33;11.73;;;;;;;5.40;100.00;102126.13;682995;28;1388;-77
2022/04/16 00:31:40;;;;;;;16.08;12.30;;;;;;;5.38;100.00;102125.19;684467;28;1900;-77
2022/04/16 00:32:00;;;;;;;15.67;12.23;;;;;;;5.39;100.00;102124.38;684359;28;1299;-77
2022/04/16 00:32:21;;;;;;;15.30;12.13;;;;;;;5.39;100.00;102134.75;685871;28;1192;-77
2022/04/16 00:32:42;;;;;;;14.93;11.80;;;;;;;5.39;100.00;102130.44;683984;28;2432;-77
2022/04/16 00:33:02;;;;;;;16.13;12.10;;;;;;;5.43;100.00;102132.34;681719;28;4297;-77
2022/04/16 00:33:25;;;;;;;16.23;12.00;;;;;;;5.44;100.00;102126.34;684306;28;1300;-77
2022/04/16 00:33:46;;;;;;;15.98;11.88;;;;;;;5.46;100.00;102126.38;685783;28;1464;-77
2022/04/16 00:34:06;;;;;;;15.63;11.68;;;;;;;5.44;100.00;102128.03;678512;28;1732;-77
2022/04/16 00:34:27;;;;;;;15.15;11.45;;;;;;;5.45;100.00;102127.22;679780;28;1378;-76
2022/04/16 00:34:47;;;;;;;14.47;11.57;;;;;;;5.45;100.00;102124.59;681733;28;1432;-77
2022/04/16 00:35:08;;;;;;;15.77;11.60;;;;;;;5.44;100.00;102128.94;685826;28;1493;-77
2022/04/16 00:35:29;;;;;;;16.27;12.00;;;;;;;5.44;100.00;102122.84;682838;28;1169;-77
2022/04/16 00:35:49;;;;;;;16.08;12.30;;;;;;;5.46;100.00;102127.25;682604;28;1090;-77
2022/04/16 00:36:09;;;;;;;15.60;11.80;;;;;;;5.46;100.00;102128.97;684965;28;4600;-77
2022/04/16 00:36:30;;;;;;;13.80;11.57;;;;;;;5.45;100.00;102130.72;683450;28;1516;-77
2022/04/16 00:36:51;;;;;;;14.87;11.93;;;;;;;5.44;100.00;102123.75;682861;28;1561;-77
2022/04/16 00:37:11;;;;;;;15.50;12.15;;;;;;;5.43;100.00;102129.75;683530;28;1465;-77
2022/04/16 00:37:31;;;;;;;15.13;12.32;;;;;;;5.42;100.00;102130.56;683351;28;1398;-77
2022/04/16 00:37:52;;;;;;;15.33;12.47;;;;;;;5.39;100.00;102122.66;684446;28;1252;-77
2022/04/16 00:38:12;;;;;;;15.40;12.20;;;;;;;5.37;100.00;102121.72;686365;28;1420;-77
2022/04/16 00:38:32;;;;;;;17.00;12.43;;;;;;;5.38;100.00;102126.06;685985;28;1186;-76
2022/04/16 00:38:53;;;;;;;15.70;12.23;;;;;;;5.37;100.00;102119.13;684553;28;1535;-77
2022/04/16 00:39:13;;;;;;;16.80;12.33;;;;;;;5.37;100.00;102126.91;686146;28;4259;-77
2022/04/16 00:39:34;;;;;;;16.20;12.37;;;;;;;5.39;100.00;102125.25;689551;28;1765;-78
2022/04/16 00:39:54;;;;;;;16.30;12.48;;;;;;;5.37;100.00;102126.91;688874;28;1234;-77
2022/04/16 00:40:15;;;;;;;16.73;12.37;;;;;;;5.45;100.00;102127.22;690422;28;1349;-77
2022/04/16 00:40:35;;;;;;;14.98;12.18;;;;;;;5.49;100.00;102126.50;689612;28;1734;-77
2022/04/16 00:40:56;;;;;;;14.73;11.73;;;;;;;5.49;100.00;102128.22;688563;28;1258;-77
2022/04/16 00:41:16;;;;;;;14.40;11.93;;;;;;;5.49;100.00;102125.63;686017;28;1225;-76
2022/04/16 00:41:39;;;;;;;15.13;12.18;;;;;;;5.48;100.00;102124.72;685367;28;1652;-77
2022/04/16 00:42:00;;;;;;;14.60;12.27;;;;;;;5.48;100.00;102129.03;684913;28;4455;-77
2022/04/16 00:42:20;;;;;;;16.00;11.77;;;;;;;5.48;100.00;102126.44;684110;28;1588;-77
2022/04/16 00:42:44;;;;;;;16.23;12.07;;;;;;;5.48;100.00;102129.03;685024;28;1981;-77
2022/04/16 00:43:05;;;;;;;16.08;11.82;;;;;;;5.49;100.00;102123.03;687227;28;1113;-76
2022/04/16 00:43:27;;;;;;;15.35;11.65;;;;;;;5.45;100.00;102125.50;687835;28;1501;-77
2022/04/16 00:43:48;;;;;;;16.00;12.38;;;;;;;5.41;100.00;102126.22;687321;28;1348;-77
2022/04/16 00:44:09;;;;;;;15.55;12.38;;;;;;;5.45;100.00;102122.94;685325;28;1427;-76
2022/04/16 00:44:29;;;;;;;16.05;12.20;;;;;;;5.45;100.00;102128.09;687400;28;1511;-76
2022/04/16 00:44:50;;;;;;;16.02;12.55;;;;;;;5.44;100.00;102130.63;688785;28;1418;-76
2022/04/16 00:45:12;;;;;;;17.63;12.77;;;;;;;5.43;100.00;102127.16;687448;28;4462;-77
2022/04/16 00:45:33;;;;;;;15.52;12.07;;;;;;;5.41;100.00;102121.03;684043;28;1246;-77
2022/04/16 00:45:54;;;;;;;14.40;11.95;;;;;;;5.42;100.00;102127.09;682985;28;1276;-77
2022/04/16 00:46:14;;;;;;;16.35;11.70;;;;;;;5.47;100.00;102130.75;684403;28;1101;-77
2022/04/16 00:46:36;;;;;;;17.27;12.30;;;;;;;5.46;100.00;102132.44;684340;28;1608;-77
2022/04/16 00:46:57;;;;;;;14.93;11.90;;;;;;;5.46;100.00;102124.66;682913;28;1384;-77
2022/04/16 00:47:17;;;;;;;15.60;11.97;;;;;;;5.45;100.00;102130.72;682642;28;1430;-77
2022/04/16 00:47:37;;;;;;;15.40;12.30;;;;;;;5.45;100.00;102129.78;686769;28;1526;-76
2022/04/16 00:47:59;;;;;;;15.33;12.00;;;;;;;5.45;100.00;102128.09;687856;28;4447;-76
2022/04/16 00:48:21;;;;;;;15.52;11.98;;;;;;;5.45;100.00;102128.09;686854;28;1148;-76
2022/04/16 00:48:41;;;;;;;14.98;11.73;;;;;;;5.46;100.00;102129.84;689546;28;1788;-76
2022/04/16 00:49:02;;;;;;;15.10;12.03;;;;;;;5.44;100.00;102128.94;689481;28;1464;-77
2022/04/16 00:49:22;;;;;;;16.08;12.40;;;;;;;5.44;100.00;102128.03;689130;28;1176;-76
2022/04/16 00:49:43;;;;;;;15.47;12.50;;;;;;;5.44;100.00;102128.94;690552;28;1434;-77
2022/04/16 00:50:05;;;;;;;14.73;11.93;;;;;;;5.45;100.00;102128.09;692117;28;1488;-77
2022/04/16 00:50:26;;;;;;;14.80;11.55;;;;;;;5.41;100.00;102128.81;692495;28;1488;-78
2022/04/16 00:50:54;;;;;;;13.98;11.65;;;;;;;5.43;100.00;102121.97;688689;28;1297;-76
2022/04/16 00:51:14;;;;;;;15.68;11.90;;;;;;;5.43;100.00;102124.56;685656;28;4267;-76
2022/04/16 00:51:36;;;;;;;15.95;12.13;;;;;;;5.43;100.00;102131.47;686600;28;1214;-76
2022/04/16 00:51:56;;;;;;;15.40;12.15;;;;;;;5.48;100.00;102131.63;684372;28;1259;-77
2022/04/16 00:52:17;;;;;;;15.18;12.10;;;;;;;5.46;100.00;102127.25;679383;28;1152;-77
2022/04/16 00:52:39;;;;;;;16.77;12.20;;;;;;;5.48;100.00;102124.72;678856;28;1465;-77
2022/04/16 00:53:00;;;;;;;15.10;11.88;;;;;;;5.44;100.00;102126.34;679228;28;1081;-76
2022/04/16 00:53:22;;;;;;;16.13;12.10;;;;;;;5.45;100.00;102127.22;684711;28;1551;-77
2022/04/16 00:53:42;;;;;;;16.90;11.85;;;;;;;5.46;100.00;102129.84;686085;28;1562;-77
2022/04/16 00:54:03;;;;;;;16.53;11.77;;;;;;;5.44;100.00;102128.94;682515;28;4303;-76
2022/04/16 00:54:23;;;;;;;15.75;11.82;;;;;;;5.45;100.00;102122.94;681615;28;1426;-77
2022/04/16 00:54:43;;;;;;;15.80;11.40;;;;;;;5.45;100.00;102122.94;681272;28;1365;-77
2022/04/16 00:55:06;;;;;;;14.88;11.63;;;;;;;5.52;100.00;102125.75;681843;28;1276;-77
2022/04/16 00:55:26;;;;;;;15.75;12.00;;;;;;;5.53;100.00;102130.13;683095;28;1182;-76
2022/04/16 00:55:47;;;;;;;15.63;12.37;;;;;;;5.51;100.00;102123.97;681901;28;1558;-76
2022/04/16 00:56:10;;;;;;;16.90;11.97;;;;;;;5.50;100.00;102123.09;688268;28;4685;-77
2022/04/16 00:56:30;;;;;;;14.95;11.95;;;;;;;5.51;100.00;102131.75;688173;28;1597;-76
2022/04/16 00:56:51;;;;;;;15.77;12.23;;;;;;;5.52;100.00;102124.03;689834;28;1553;-77
2022/04/16 00:57:11;;;;;;;14.67;12.20;;;;;;;5.54;100.00;102124.97;690257;28;4373;-77
2022/04/16 00:57:32;;;;;;;15.27;12.70;;;;;;;5.52;100.00;102129.22;686925;28;1535;-77
2022/04/16 00:57:54;;;;;;;16.58;12.38;;;;;;;5.49;100.00;102121.31;684425;28;1218;-77
2022/04/16 00:58:14;;;;;;;15.60;12.00;;;;;;;5.49;100.00;102130.81;683576;28;1233;-77
2022/04/16 00:58:35;;;;;;;15.33;11.70;;;;;;;5.48;100.00;102124.72;685507;28;1522;-77
2022/04/16 00:58:55;;;;;;;16.27;11.67;;;;;;;5.48;100.00;102122.13;685959;28;1594;-77
2022/04/16 00:59:16;;;;;;;16.13;11.77;;;;;;;5.45;100.00;102125.50;689153;28;1351;-77
2022/04/16 00:59:36;;;;;;;14.32;11.57;;;;;;;5.45;100.00;102125.50;690086;28;1643;-77
2022/04/16 00:59:57;;;;;;;15.33;11.73;;;;;;;5.46;100.00;102129.84;688914;28;1339;-77
2022/04/16 01:00:17;;;;;;;15.93;11.90;;;;;;;5.47;100.00;102128.16;689502;28;4234;-77
2022/04/16 01:00:38;;;;;;;16.83;11.97;;;;;;;5.47;100.00;102125.56;687706;28;1889;-77
2022/04/16 01:00:58;;;;;;;16.17;11.73;;;;;;;5.48;100.00;102127.31;685709;28;1421;-77
2022/04/16 01:01:18;;;;;;;16.83;12.20;;;;;;;5.44;100.00;102128.94;685379;28;1685;-76
2022/04/16 01:01:39;;;;;;;16.00;11.95;;;;;;;5.45;100.00;102125.50;684625;28;1453;-77
2022/04/16 01:01:59;;;;;;;16.03;12.30;;;;;;;5.48;100.00;102123.84;687179;28;1365;-77
2022/04/16 01:02:20;;;;;;;15.43;12.02;;;;;;;5.47;100.00;102125.56;686426;28;1467;-77
2022/04/16 01:02:41;;;;;;;15.02;11.75;;;;;;;5.45;100.00;102128.09;686352;28;1965;-76
2022/04/16 01:03:02;;;;;;;14.55;12.13;;;;;;;5.48;100.00;102127.31;681117;28;4527;-77
2022/04/16 01:03:22;;;;;;;14.98;11.57;;;;;;;5.50;100.00;102129.97;679245;28;1470;-77
2022/04/16 01:03:45;;;;;;;14.33;11.90;;;;;;;5.51;100.00;102134.34;681158;28;1425;-77
2022/04/16 01:04:05;;;;;;;15.80;11.93;;;;;;;5.53;100.00;102132.72;683417;28;1568;-77
2022/04/16 01:04:26;;;;;;;14.27;11.17;;;;;;;5.53;100.00;102132.72;680425;28;1401;-76
2022/04/16 01:04:46;;;;;;;14.45;11.52;;;;;;;5.51;100.00;102131.75;683535;28;1287;-77
2022/04/16 01:05:07;;;;;;;15.20;12.37;;;;;;;5.48;100.00;102134.22;684610;28;1416;-77
2022/04/16 01:05:28;;;;;;;14.95;11.90;;;;;;;5.52;100.00;102136.13;682785;28;1509;-77
2022/04/16 01:05:49;;;;;;;15.87;11.80;;;;;;;5.52;100.00;102131.81;683726;28;925;-77
2022/04/16 01:06:14;;;;;;;16.27;11.60;;;;;;;5.51;100.00;102134.34;684568;28;4291;-77
2022/04/16 01:06:39;;;;;;;13.95;11.70;;;;;;;5.51;100.00;102136.94;686850;28;1626;-76
2022/04/16 01:06:59;;;;;;;15.45;11.52;;;;;;;5.51;100.00;102135.25;689792;28;1411;-76
2022/04/16 01:07:26;;;;;;;16.20;12.10;;;;;;;5.47;100.00;102128.16;683963;28;1465;-77
2022/04/16 01:07:53;;;;;;;15.40;12.32;;;;;;;5.45;100.00;102133.28;685699;28;1192;-77
2022/04/16 01:08:17;;;;;;;15.68;12.07;;;;;;;5.47;100.00;102133.34;687223;28;1204;-77
2022/04/16 01:08:38;;;;;;;14.05;11.40;;;;;;;5.49;100.00;102133.41;686088;28;1599;-77
2022/04/16 01:09:00;;;;;;;14.98;12.05;;;;;;;5.49;100.00;102141.19;686395;28;4356;-77
2022/04/16 01:09:20;;;;;;;15.45;11.90;;;;;;;5.48;100.00;102135.09;686235;28;1294;-77
2022/04/16 01:09:41;;;;;;;15.93;11.80;;;;;;;5.48;100.00;102135.09;686216;28;1622;-77
2022/04/16 01:10:02;;;;;;;14.93;11.93;;;;;;;5.46;100.00;102131.56;686370;28;1606;-77
2022/04/16 01:10:27;;;;;;;14.90;12.00;;;;;;;5.45;100.00;102135.88;685638;28;1610;-78
2022/04/16 01:10:48;;;;;;;14.95;11.93;;;;;;;5.44;100.00;102133.22;684551;28;1178;-77
2022/04/16 01:11:08;;;;;;;14.55;11.90;;;;;;;5.45;100.00;102129.78;684454;28;1520;-77
2022/04/16 01:11:29;;;;;;;14.82;11.73;;;;;;;5.44;100.00;102128.94;684462;28;1452;-77
2022/04/16 01:11:50;;;;;;;14.33;11.47;;;;;;;5.43;100.00;102139.25;683873;28;1386;-77
2022/04/16 01:12:10;;;;;;;14.38;11.40;;;;;;;5.42;100.00;102130.56;682959;28;4443;-77
2022/04/16 01:12:30;;;;;;;15.37;11.73;;;;;;;5.42;100.00;102133.16;688304;28;1248;-77
2022/04/16 01:12:51;;;;;;;15.50;11.63;;;;;;;5.43;100.00;102137.53;685993;28;1234;-77
2022/04/16 01:13:11;;;;;;;15.00;11.80;;;;;;;5.44;100.00;102138.41;685310;28;1515;-77
2022/04/16 01:13:32;;;;;;;14.80;11.52;;;;;;;5.44;100.00;102141.00;688862;28;1438;-77
2022/04/16 01:13:52;;;;;;;13.90;11.57;;;;;;;5.45;100.00;102135.88;687559;28;1393;-77
2022/04/16 01:14:17;;;;;;;13.93;11.20;;;;;;;5.43;100.00;102132.34;689655;28;1123;-77
2022/04/16 01:14:38;;;;;;;14.23;11.48;;;;;;;5.46;100.00;102142.81;687799;28;1524;-77
2022/04/16 01:14:59;;;;;;;15.02;12.35;;;;;;;5.45;100.00;102141.06;688454;28;4314;-77
2022/04/16 01:15:20;;;;;;;15.23;12.10;;;;;;;5.43;100.00;102141.84;690994;28;1447;-77
2022/04/16 01:15:41;;;;;;;15.20;11.77;;;;;;;5.43;100.00;102132.34;689398;28;1577;-77
2022/04/16 01:16:01;;;;;;;16.27;12.20;;;;;;;5.41;100.00;102138.28;687800;28;1690;-77
2022/04/16 01:16:21;;;;;;;16.10;12.20;;;;;;;5.37;100.00;102136.38;687783;28;1287;-77
2022/04/16 01:16:42;;;;;;;15.23;12.43;;;;;;;5.36;100.00;102132.00;688742;28;1996;-77
2022/04/16 01:17:03;;;;;;;14.82;12.20;;;;;;;5.36;100.00;102139.78;683402;28;1245;-77
2022/04/16 01:17:23;;;;;;;16.07;12.10;;;;;;;5.36;100.00;102135.50;685517;28;1219;-77
2022/04/16 01:17:44;;;;;;;16.55;12.23;;;;;;;5.37;100.00;102133.78;683744;28;1264;-77
2022/04/16 01:18:05;;;;;;;15.18;12.05;;;;;;;5.42;100.00;102140.06;679959;28;4322;-76
2022/04/16 01:18:25;;;;;;;15.75;12.35;;;;;;;5.44;100.00;102133.22;681472;28;1321;-77
2022/04/16 01:18:46;;;;;;;15.10;11.93;;;;;;;5.45;100.00;102143.69;681868;28;1215;-77
2022/04/16 01:19:12;;;;;;;13.70;11.65;;;;;;;5.42;100.00;102138.34;678029;28;1415;-76
2022/04/16 01:19:34;;;;;;;15.73;12.18;;;;;;;5.40;100.00;102141.69;677172;28;1313;-77
2022/04/16 01:19:57;;;;;;;15.85;12.05;;;;;;;5.36;100.00;102137.19;682256;28;1430;-77
2022/04/16 01:20:18;;;;;;;16.77;12.38;;;;;;;5.32;100.00;102136.22;683924;28;1414;-76
2022/04/16 01:20:41;;;;;;;16.23;12.38;;;;;;;5.31;100.00;102142.22;684089;28;1518;-77
2022/04/16 01:21:02;;;;;;;15.88;12.13;;;;;;;5.31;100.00;102142.22;681045;28;4349;-77
2022/04/16 01:21:23;;;;;;;15.45;12.10;;;;;;;5.32;100.00;102137.91;682846;28;1388;-76
2022/04/16 01:21:43;;;;;;;15.90;12.40;;;;;;;5.35;100.00;102135.44;679661;28;1223;-77
2022/04/16 01:22:07;;;;;;;15.90;12.47;;;;;;;5.36;100.00;102140.69;685200;28;1519;-77
2022/04/16 01:22:30;;;;;;;15.23;12.50;;;;;;;5.39;100.00;102134.75;686093;28;1402;-77
2022/04/16 01:22:52;;;;;;;17.73;12.65;;;;;;;5.39;100.00;102133.03;686496;28;1365;-76
2022/04/16 01:23:12;;;;;;;15.95;12.45;;;;;;;5.41;100.00;102140.88;684655;28;1695;-77
2022/04/16 01:23:33;;;;;;;16.17;12.53;;;;;;;5.41;100.00;102135.69;681406;28;1387;-77
2022/04/16 01:23:53;;;;;;;15.73;12.10;;;;;;;5.41;100.00;102140.88;681716;28;1357;-76
2022/04/16 01:24:16;;;;;;;16.07;12.80;;;;;;;5.39;100.00;102135.63;678089;28;4305;-77
2022/04/16 01:24:37;;;;;;;15.75;12.10;;;;;;;5.41;100.00;102140.88;684173;28;1505;-77
2022/04/16 01:24:59;;;;;;;15.38;11.80;;;;;;;5.40;100.00;102137.41;680976;28;1631;-77
2022/04/16 01:25:20;;;;;;;16.38;12.07;;;;;;;5.43;100.00;102140.13;682813;28;1610;-77
2022/04/16 01:25:43;;;;;;;16.80;12.53;;;;;;;5.42;100.00;102140.94;684308;28;1630;-77
2022/04/16 01:26:03;;;;;;;16.38;12.38;;;;;;;5.44;100.00;102138.41;686616;28;1191;-77
2022/04/16 01:26:24;;;;;;;16.30;12.32;;;;;;;5.44;100.00;102141.00;686500;28;1156;-77
2022/04/16 01:26:44;;;;;;;15.83;12.30;;;;;;;5.46;100.00;102144.53;682921;28;1506;-77
2022/04/16 01:27:04;;;;;;;15.43;12.27;;;;;;;5.52;100.00;102136.13;680804;28;4336;-76
2022/04/16 01:27:25;;;;;;;16.17;12.43;;;;;;;5.51;100.00;102134.34;682962;28;1328;-76
2022/04/16 01:27:46;;;;;;;16.40;12.40;;;;;;;5.51;100.00;102139.53;683130;28;1327;-77
2022/04/16 01:28:06;;;;;;;16.20;12.50;;;;;;;5.51;100.00;102144.72;679677;28;1116;-77
2022/04/16 01:28:30;;;;;;;15.82;12.30;;;;;;;5.50;100.00;102137.75;684424;28;1566;-77
2022/04/16 01:28:50;;;;;;;16.95;12.05;;;;;;;5.50;100.00;102137.75;678997;28;1709;-77
2022/04/16 01:29:11;;;;;;;16.30;12.50;;;;;;;5.49;100.00;102142.06;677414;28;1202;-76
2022/04/16 01:29:31;;;;;;;15.60;12.43;;;;;;;5.48;100.00;102135.09;683915;28;1457;-77
2022/04/16 01:29:53;;;;;;;15.80;12.63;;;;;;;5.49;100.00;102138.59;685980;28;1737;-77
2022/04/16 01:30:15;;;;;;;16.42;12.98;;;;;;;5.52;100.00;102130.94;683446;28;4402;-77
2022/04/16 01:30:35;;;;;;;16.30;13.27;;;;;;;5.53;100.00;102138.78;683280;28;1045;-76
2022/04/16 01:30:56;;;;;;;16.45;12.60;;;;;;;5.56;100.00;102135.41;682325;28;1352;-77
2022/04/16 01:31:16;;;;;;;16.60;12.67;;;;;;;5.55;100.00;102137.13;682042;28;1832;-77
2022/04/16 01:31:37;;;;;;;16.03;12.53;;;;;;;5.55;100.00;102138.81;684164;28;1530;-77
2022/04/16 01:31:59;;;;;;;15.57;12.10;;;;;;;5.53;100.00;102138.78;684974;28;1390;-77
2022/04/16 01:32:19;;;;;;;16.58;12.52;;;;;;;5.52;100.00;102131.81;684461;28;1417;-77
2022/04/16 01:32:43;;;;;;;17.38;13.38;;;;;;;5.54;100.00;102135.38;684538;28;1223;-76
2022/04/16 01:33:03;;;;;;;17.30;13.05;;;;;;;5.54;100.00;102144.84;683582;28;4519;-77
2022/04/16 01:33:24;;;;;;;17.17;13.20;;;;;;;5.54;100.00;102139.66;685672;28;1478;-77
2022/04/16 01:33:44;;;;;;;16.38;12.82;;;;;;;5.54;100.00;102137.06;687967;28;1175;-76
2022/04/16 01:34:06;;;;;;;15.83;12.07;;;;;;;5.58;100.00;102134.66;688854;28;1660;-77
2022/04/16 01:34:27;;;;;;;15.98;12.57;;;;;;;5.58;100.00;102134.66;685887;28;1691;-76
2022/04/16 01:34:47;;;;;;;16.65;12.63;;;;;;;5.57;100.00;102134.59;685681;28;1450;-77
2022/04/16 01:35:08;;;;;;;15.43;12.67;;;;;;;5.58;100.00;102136.34;686090;28;1707;-77
2022/04/16 01:35:29;;;;;;;16.35;12.88;;;;;;;5.55;100.00;102136.22;686251;28;1459;-77
2022/04/16 01:35:56;;;;;;;16.67;13.23;;;;;;;5.52;100.00;102139.59;684188;28;1593;-77
2022/04/16 01:36:16;;;;;;;16.60;13.07;;;;;;;5.51;100.00;102140.44;685436;28;5082;-76
2022/04/16 01:36:37;;;;;;;17.25;13.15;;;;;;;5.52;100.00;102137.00;684568;28;1336;-77
2022/04/16 01:37:01;;;;;;;16.93;13.00;;;;;;;5.52;100.00;102141.31;686421;28;1435;-77
2022/04/16 01:37:24;;;;;;;16.88;13.30;;;;;;;5.52;100.00;102136.13;683373;28;1744;-77
2022/04/16 01:37:45;;;;;;;16.75;12.68;;;;;;;5.50;100.00;102136.06;683281;28;1531;-77
2022/04/16 01:38:07;;;;;;;16.45;12.98;;;;;;;5.49;100.00;102138.59;681095;28;1461;-77
2022/04/16 01:38:28;;;;;;;15.20;12.25;;;;;;;5.51;100.00;102139.53;679851;28;1402;-76